Time;durP1;ratioP1;P1;durP2;ratioP2;P2;SDS_P1;SDS_P2;PMS_P1;PMS_P2;Temp;Humidity;BMP_temperature;BMP_pressure;BME280_temperature;BME280_humidity;BME280_pressure;Samples;Min_cycle;Max_cycle;Signal;HPM_P1;HPM_P2
2022/03/10 00:01:36;;;;;;;18.33;10.52;;;1.00;40.50;;;;;;5029710;28;20260;-62
2022/03/10 00:04:03;;;;;;;16.52;10.25;;;0.90;40.40;;;;;;5029442;28;20194;-62
2022/03/10 00:06:30;;;;;;;16.25;9.70;;;0.90;40.70;;;;;;5030316;28;20206;-62
2022/03/10 00:08:58;;;;;;;21.20;11.95;;;0.90;40.80;;;;;;5029775;28;20190;-62
2022/03/10 00:11:26;;;;;;;20.52;10.70;;;0.80;40.60;;;;;;5029686;28;20195;-63
2022/03/10 00:13:53;;;;;;;17.27;10.20;;;0.80;41.20;;;;;;5031173;28;20219;-62
2022/03/10 00:16:20;;;;;;;15.80;10.05;;;0.80;40.50;;;;;;5032305;28;20187;-64
2022/03/10 00:18:47;;;;;;;15.90;9.73;;;0.70;40.40;;;;;;5030238;28;20218;-62
2022/03/10 00:21:15;;;;;;;20.17;10.43;;;0.70;40.90;;;;;;5015396;28;20179;-62
2022/03/10 00:23:42;;;;;;;24.25;11.68;;;0.80;40.50;;;;;;5031323;28;20589;-63
2022/03/10 00:26:09;;;;;;;19.60;11.88;;;0.70;40.00;;;;;;5011973;28;20587;-61
2022/03/10 00:28:37;;;;;;;14.50;9.27;;;0.60;39.70;;;;;;5012047;28;20203;-61
2022/03/10 00:31:05;;;;;;;15.52;9.32;;;0.60;40.20;;;;;;5030324;28;20241;-62
2022/03/10 00:33:32;;;;;;;15.82;9.55;;;0.60;40.50;;;;;;5024660;28;20302;-63
2022/03/10 00:35:59;;;;;;;12.57;8.50;;;0.50;40.20;;;;;;5014062;28;20221;-62
2022/03/10 00:38:26;;;;;;;14.80;8.88;;;0.40;40.60;;;;;;5028604;28;20507;-62
2022/03/10 00:40:53;;;;;;;17.85;11.23;;;0.40;41.10;;;;;;5011941;28;20294;-62
2022/03/10 00:43:20;;;;;;;14.25;10.00;;;0.40;41.60;;;;;;5011603;28;20199;-64
2022/03/10 00:45:48;;;;;;;14.02;9.25;;;0.40;41.60;;;;;;5020787;28;20188;-63
2022/03/10 00:48:16;;;;;;;17.85;9.65;;;0.30;41.50;;;;;;5011652;28;20192;-62
2022/03/10 00:50:43;;;;;;;17.33;9.52;;;0.30;41.40;;;;;;5030245;28;20191;-63
2022/03/10 00:53:14;;;;;;;19.80;9.57;;;0.30;41.30;;;;;;5031372;28;20881;-62
2022/03/10 00:55:41;;;;;;;17.67;12.30;;;0.30;41.50;;;;;;5015389;28;20203;-62
2022/03/10 00:58:08;;;;;;;15.90;10.27;;;0.20;41.50;;;;;;5026498;28;20245;-63
2022/03/10 01:00:35;;;;;;;19.30;9.82;;;0.20;41.50;;;;;;5035152;28;20249;-63
2022/03/10 01:03:05;;;;;;;20.65;10.85;;;0.20;42.10;;;;;;5025326;28;20203;-63
2022/03/10 01:05:32;;;;;;;15.45;9.27;;;0.10;41.90;;;;;;5015287;28;20210;-62
2022/03/10 01:07:59;;;;;;;19.17;11.32;;;0.10;41.70;;;;;;5023411;28;20241;-63
2022/03/10 01:10:26;;;;;;;19.58;12.25;;;0.10;41.80;;;;;;5020167;28;20246;-63
2022/03/10 01:12:53;;;;;;;23.92;11.15;;;0.10;42.00;;;;;;5021889;28;20187;-62
2022/03/10 01:15:23;;;;;;;21.10;12.52;;;0.10;42.10;;;;;;5034852;28;20223;-63
2022/03/10 01:17:51;;;;;;;23.58;11.23;;;0.10;43.50;;;;;;5028622;28;20210;-62
2022/03/10 01:20:21;;;;;;;20.80;12.07;;;0.10;43.60;;;;;;5015071;28;20226;-62
2022/03/10 01:22:48;;;;;;;19.52;10.63;;;0.00;42.80;;;;;;5032714;28;20188;-62
2022/03/10 01:25:15;;;;;;;24.17;12.15;;;0.00;42.40;;;;;;5034542;28;20197;-63
2022/03/10 01:27:43;;;;;;;21.35;12.18;;;-0.10;42.50;;;;;;5017666;28;20196;-62
2022/03/10 01:30:12;;;;;;;17.60;10.95;;;-0.20;43.00;;;;;;5020789;28;20184;-62
2022/03/10 01:32:39;;;;;;;20.92;11.23;;;-0.20;43.40;;;;;;5034701;28;20666;-65
2022/03/10 01:35:07;;;;;;;20.45;11.73;;;-0.20;43.50;;;;;;5033587;28;20243;-62
2022/03/10 01:37:37;;;;;;;21.30;11.48;;;-0.30;44.30;;;;;;5034393;28;20203;-63
2022/03/10 01:40:05;;;;;;;18.83;11.68;;;-0.30;44.00;;;;;;5015451;28;20219;-62
2022/03/10 01:42:32;;;;;;;14.85;10.10;;;-0.30;44.30;;;;;;5014626;28;20207;-63
2022/03/10 01:45:00;;;;;;;19.23;10.88;;;-0.40;43.70;;;;;;5030942;28;20597;-64
2022/03/10 01:47:27;;;;;;;16.98;10.70;;;-0.40;43.50;;;;;;5014698;28;20188;-63
2022/03/10 01:49:54;;;;;;;13.77;8.95;;;-0.40;43.80;;;;;;5030182;28;20665;-63
2022/03/10 01:52:21;;;;;;;16.60;9.85;;;-0.40;44.30;;;;;;5034429;28;20191;-64
2022/03/10 01:54:50;;;;;;;19.17;10.63;;;-0.40;44.30;;;;;;5019572;28;20274;-63
2022/03/10 01:57:18;;;;;;;17.33;10.52;;;-0.50;45.30;;;;;;5014340;28;20192;-63
2022/03/10 01:59:45;;;;;;;15.98;9.10;;;-0.50;45.40;;;;;;5014510;28;20590;-63
2022/03/10 02:02:12;;;;;;;14.65;8.68;;;-0.50;45.60;;;;;;5014175;28;20359;-63
2022/03/10 02:04:39;;;;;;;16.65;9.98;;;-0.50;45.30;;;;;;5032818;28;20198;-63
2022/03/10 02:10:16;;;;;;;23.48;10.82;;;-0.40;45.70;;;;;;5033069;28;20245;-67
2022/03/10 02:12:42;;;;;;;20.00;10.48;;;-0.50;45.30;;;;;;5017957;28;20619;-63
2022/03/10 02:17:59;;;;;;;21.58;11.30;;;-0.50;45.30;;;;;;5032272;28;20668;-63
2022/03/10 02:20:26;;;;;;;19.67;10.30;;;-0.60;45.30;;;;;;5033339;28;20346;-63
2022/03/10 02:22:54;;;;;;;18.30;11.40;;;-0.60;45.80;;;;;;5016799;28;20184;-63
2022/03/10 02:25:22;;;;;;;22.40;11.27;;;-0.60;45.60;;;;;;5013783;28;20203;-63
2022/03/10 02:27:51;;;;;;;18.63;9.60;;;-0.70;45.60;;;;;;5028520;28;20237;-64
2022/03/10 02:30:19;;;;;;;18.23;10.23;;;-0.70;44.80;;;;;;5033741;28;20571;-63
2022/03/10 02:32:46;;;;;;;19.98;11.73;;;-0.80;45.30;;;;;;5018877;28;20199;-62
2022/03/10 02:35:14;;;;;;;16.75;8.95;;;-1.00;45.90;;;;;;5032190;28;20187;-63
2022/03/10 02:37:42;;;;;;;17.88;9.10;;;-0.90;46.00;;;;;;5020080;28;20215;-63
2022/03/10 02:40:12;;;;;;;18.55;10.30;;;-0.90;45.90;;;;;;5013410;28;20223;-62
2022/03/10 02:42:39;;;;;;;21.08;11.60;;;-0.90;45.90;;;;;;5025013;28;20202;-63
2022/03/10 02:45:08;;;;;;;16.08;9.18;;;-1.00;45.00;;;;;;5015868;28;20190;-63
2022/03/10 02:47:36;;;;;;;13.98;8.23;;;-1.00;45.20;;;;;;5023766;28;20202;-63
2022/03/10 02:50:06;;;;;;;16.55;8.15;;;-1.10;45.10;;;;;;5033046;28;20202;-63
2022/03/10 02:52:35;;;;;;;19.13;9.90;;;-1.10;45.20;;;;;;5022997;28;20195;-64
2022/03/10 02:55:02;;;;;;;15.27;9.38;;;-1.20;45.20;;;;;;5014301;28;20206;-63
2022/03/10 02:57:31;;;;;;;16.80;9.23;;;-1.20;45.40;;;;;;5013234;28;20196;-63
2022/03/10 02:59:59;;;;;;;20.40;9.18;;;-1.10;45.50;;;;;;5017518;28;20595;-65
2022/03/10 03:02:31;;;;;;;15.35;9.60;;;-1.20;45.40;;;;;;5022827;28;20196;-65
2022/03/10 03:04:58;;;;;;;14.73;8.15;;;-1.20;45.50;;;;;;5016877;28;20195;-63
2022/03/10 03:07:25;;;;;;;17.65;9.82;;;-1.20;45.50;;;;;;5032704;28;20199;-63
2022/03/10 03:09:52;;;;;;;16.40;9.85;;;-1.20;45.70;;;;;;5029814;28;20230;-63
2022/03/10 03:12:19;;;;;;;14.32;8.35;;;-1.20;45.30;;;;;;5020745;28;20179;-63
2022/03/10 03:14:48;;;;;;;14.98;9.10;;;-1.40;45.40;;;;;;5031079;28;20229;-62
2022/03/10 03:17:15;;;;;;;14.45;8.68;;;-1.40;46.20;;;;;;5012326;28;20196;-64
2022/03/10 03:19:42;;;;;;;19.48;9.77;;;-1.40;46.80;;;;;;5012428;28;20270;-63
2022/03/10 03:22:09;;;;;;;17.58;8.63;;;-1.40;47.30;;;;;;5032304;28;20654;-63
2022/03/10 03:24:36;;;;;;;16.67;9.07;;;-1.30;47.30;;;;;;5021597;28;20203;-63
2022/03/10 03:27:04;;;;;;;17.67;8.95;;;-1.30;48.10;;;;;;5012733;28;20200;-63
2022/03/10 03:29:31;;;;;;;13.43;8.07;;;-1.30;48.00;;;;;;5017288;28;20664;-64
2022/03/10 03:31:59;;;;;;;16.02;8.35;;;-1.30;47.90;;;;;;5032217;28;20249;-63
2022/03/10 03:34:27;;;;;;;12.40;7.90;;;-1.30;47.70;;;;;;5032343;28;20584;-64
2022/03/10 03:36:54;;;;;;;17.48;9.98;;;-1.30;46.60;;;;;;5031606;28;20191;-65
2022/03/10 03:39:21;;;;;;;16.17;9.43;;;-1.40;46.20;;;;;;5032596;28;20203;-63
2022/03/10 03:41:48;;;;;;;14.30;7.57;;;-1.40;47.10;;;;;;5020139;28;20235;-62
2022/03/10 03:44:15;;;;;;;15.35;8.48;;;-1.40;47.10;;;;;;5012581;28;20248;-63
2022/03/10 03:46:42;;;;;;;16.58;9.85;;;-1.40;47.50;;;;;;5022591;28;20187;-63
2022/03/10 03:49:11;;;;;;;19.85;11.05;;;-1.40;47.30;;;;;;5017217;28;20215;-63
2022/03/10 03:51:39;;;;;;;16.45;10.40;;;-1.50;47.00;;;;;;5021046;28;20187;-64
2022/03/10 03:54:07;;;;;;;21.58;9.80;;;-1.60;47.00;;;;;;5031711;28;20286;-63
2022/03/10 03:56:34;;;;;;;18.58;10.25;;;-1.60;47.20;;;;;;5023606;28;20678;-63
2022/03/10 03:59:02;;;;;;;19.10;10.43;;;-1.70;47.50;;;;;;5012221;28;20198;-63
2022/03/10 04:01:29;;;;;;;18.83;10.25;;;-1.60;47.90;;;;;;5030290;28;20213;-63
2022/03/10 04:03:56;;;;;;;18.15;9.52;;;-1.60;48.10;;;;;;5032314;28;20213;-63
2022/03/10 04:06:26;;;;;;;24.25;11.50;;;-1.60;47.80;;;;;;5015497;28;20234;-68
2022/03/10 04:08:53;;;;;;;19.38;11.57;;;-1.60;48.80;;;;;;5012690;28;20191;-63
2022/03/10 04:11:20;;;;;;;15.60;9.20;;;-1.60;48.70;;;;;;5021578;28;20207;-63
2022/03/10 04:13:48;;;;;;;18.17;10.80;;;-1.60;48.40;;;;;;5012295;28;20196;-63
2022/03/10 04:16:15;;;;;;;18.88;9.52;;;-1.60;48.50;;;;;;5013895;28;20195;-62
2022/03/10 04:18:43;;;;;;;20.60;9.88;;;-1.60;48.30;;;;;;5012577;28;20196;-62
2022/03/10 04:21:15;;;;;;;18.17;9.88;;;-1.60;48.10;;;;;;5024963;28;20345;-63
2022/03/10 04:23:43;;;;;;;22.05;11.07;;;-1.70;48.50;;;;;;5032283;28;20202;-65
2022/03/10 04:26:10;;;;;;;20.63;10.60;;;-1.80;48.30;;;;;;5018935;28;20192;-64
2022/03/10 04:28:37;;;;;;;22.65;11.25;;;-1.90;48.30;;;;;;5013321;28;20192;-63
2022/03/10 04:31:04;;;;;;;16.50;9.93;;;-2.00;47.80;;;;;;5027232;28;20183;-63
2022/03/10 04:33:31;;;;;;;20.27;9.05;;;-2.00;48.40;;;;;;5036196;28;20256;-63
2022/03/10 04:35:58;;;;;;;18.38;9.45;;;-2.10;49.30;;;;;;5021315;28;20191;-63
2022/03/10 04:38:26;;;;;;;17.38;8.25;;;-2.10;49.60;;;;;;5016030;28;20647;-63
2022/03/10 04:40:54;;;;;;;13.38;7.60;;;-2.10;49.60;;;;;;5028520;28;20273;-63
2022/03/10 04:43:21;;;;;;;12.13;7.30;;;-2.10;49.70;;;;;;5035946;28;20191;-63
2022/03/10 04:45:49;;;;;;;14.98;8.30;;;-2.10;49.50;;;;;;5022946;28;20246;-63
2022/03/10 04:48:15;;;;;;;13.88;7.38;;;-2.00;49.50;;;;;;5016652;28;20201;-63
2022/03/10 04:50:42;;;;;;;15.50;8.38;;;-2.00;49.80;;;;;;5015816;28;20255;-63
2022/03/10 04:53:09;;;;;;;14.90;7.43;;;-2.00;50.10;;;;;;5015740;28;20200;-64
2022/03/10 04:55:36;;;;;;;15.30;9.75;;;-1.90;49.50;;;;;;5035415;28;20637;-63
2022/03/10 04:58:08;;;;;;;19.77;9.82;;;-1.80;49.40;;;;;;5035628;28;20202;-63
2022/03/10 05:00:36;;;;;;;15.02;8.52;;;-1.80;49.70;;;;;;5015790;28;20215;-64
2022/03/10 05:03:02;;;;;;;14.68;8.18;;;-1.80;49.60;;;;;;5015845;28;20196;-62
2022/03/10 05:05:30;;;;;;;18.08;9.05;;;-1.80;49.30;;;;;;5033450;28;20550;-63
2022/03/10 05:07:57;;;;;;;19.38;10.05;;;-1.80;48.40;;;;;;5035437;28;20268;-63
2022/03/10 05:10:24;;;;;;;13.35;8.45;;;-1.90;48.40;;;;;;5018303;28;20218;-63
2022/03/10 05:12:53;;;;;;;15.52;8.93;;;-1.90;48.70;;;;;;5035249;28;20192;-65
2022/03/10 05:15:23;;;;;;;22.52;11.57;;;-1.90;48.70;;;;;;5019988;28;20238;-63
2022/03/10 05:17:52;;;;;;;23.35;11.60;;;-1.90;49.20;;;;;;5028184;28;20287;-63
2022/03/10 05:20:20;;;;;;;20.73;10.65;;;-1.90;49.80;;;;;;5032662;28;20192;-63
2022/03/10 05:22:48;;;;;;;18.10;10.65;;;-1.90;49.80;;;;;;5017638;28;20229;-63
2022/03/10 05:25:16;;;;;;;26.85;13.45;;;-1.90;50.20;;;;;;5033413;28;20194;-64
2022/03/10 05:27:44;;;;;;;15.27;9.88;;;-1.80;50.60;;;;;;5015313;28;20192;-63
2022/03/10 05:30:12;;;;;;;19.13;10.77;;;-1.80;50.10;;;;;;5031525;28;20194;-63
2022/03/10 05:32:41;;;;;;;16.27;9.43;;;-1.80;48.90;;;;;;5024275;28;20200;-63
2022/03/10 05:35:10;;;;;;;18.65;11.13;;;-1.80;48.40;;;;;;5015169;28;20204;-64
2022/03/10 05:37:40;;;;;;;18.95;9.73;;;-1.80;48.90;;;;;;5024338;28;20195;-63
2022/03/10 05:40:09;;;;;;;18.35;9.30;;;-1.90;49.30;;;;;;5034365;28;20250;-63
2022/03/10 05:42:42;;;;;;;19.67;10.30;;;-1.90;49.30;;;;;;5025064;28;20202;-63
2022/03/10 05:45:11;;;;;;;15.88;9.18;;;-1.90;49.30;;;;;;5015074;28;20282;-63
2022/03/10 05:47:47;;;;;;;17.77;9.95;;;-1.90;49.60;;;;;;5023334;28;20191;-64
2022/03/10 05:50:14;;;;;;;15.90;9.00;;;-1.90;49.90;;;;;;5034527;28;20244;-63
2022/03/10 05:52:41;;;;;;;19.73;11.75;;;-1.90;49.20;;;;;;5025813;28;20188;-63
2022/03/10 05:55:09;;;;;;;18.30;10.07;;;-1.90;49.40;;;;;;5030018;28;20199;-63
2022/03/10 05:57:36;;;;;;;15.07;8.65;;;-1.90;49.30;;;;;;5032484;28;20195;-63
2022/03/10 06:00:03;;;;;;;19.00;9.15;;;-1.90;49.50;;;;;;5032101;28;20206;-64
2022/03/10 06:02:30;;;;;;;17.38;9.60;;;-1.90;49.60;;;;;;5032838;28;20207;-64
2022/03/10 06:05:02;;;;;;;39.55;19.00;;;-1.90;50.60;;;;;;5032334;28;20202;-63
2022/03/10 06:07:29;;;;;;;27.02;12.25;;;-1.90;51.60;;;;;;5032679;28;20550;-63
2022/03/10 06:09:56;;;;;;;26.92;11.15;;;-1.80;51.70;;;;;;5032797;28;20567;-62
2022/03/10 06:12:25;;;;;;;20.02;11.82;;;-1.80;51.60;;;;;;5031562;28;20214;-63
2022/03/10 06:14:53;;;;;;;19.25;11.35;;;-1.80;52.10;;;;;;5031645;28;20721;-63
2022/03/10 06:17:21;;;;;;;40.88;26.45;;;-1.70;52.00;;;;;;5031757;28;20277;-64
2022/03/10 06:19:48;;;;;;;37.17;23.85;;;-1.60;51.90;;;;;;5031239;28;20607;-63
2022/03/10 06:22:18;;;;;;;30.65;23.33;;;-1.50;52.60;;;;;;5030084;28;20568;-63
2022/03/10 06:24:45;;;;;;;45.13;31.88;;;-1.50;51.80;;;;;;5031492;28;20199;-64
2022/03/10 06:27:13;;;;;;;18.92;13.63;;;-1.40;52.50;;;;;;5025506;28;20211;-63
2022/03/10 06:29:40;;;;;;;18.50;11.95;;;-1.40;52.60;;;;;;5032328;28;20195;-63
2022/03/10 06:32:08;;;;;;;18.23;11.13;;;-1.30;53.10;;;;;;5031442;28;20219;-62
2022/03/10 06:34:37;;;;;;;47.80;25.05;;;-1.10;53.50;;;;;;5031962;28;20198;-65
2022/03/10 06:37:04;;;;;;;43.88;27.02;;;-0.90;52.90;;;;;;5029487;28;20237;-63
2022/03/10 06:39:33;;;;;;;31.67;17.35;;;-0.70;53.00;;;;;;5031391;28;20206;-63
2022/03/10 06:42:00;;;;;;;22.70;13.73;;;-0.50;53.40;;;;;;5028474;28;20638;-63
2022/03/10 06:44:27;;;;;;;20.75;12.73;;;-0.20;52.90;;;;;;5031641;28;20582;-67
2022/03/10 06:46:54;;;;;;;18.95;11.35;;;0.20;52.40;;;;;;5031741;28;20201;-63
2022/03/10 06:49:22;;;;;;;40.80;25.65;;;0.50;51.60;;;;;;5031388;28;20183;-63
2022/03/10 06:51:49;;;;;;;21.67;12.13;;;1.00;50.20;;;;;;5031250;28;20712;-63
2022/03/10 06:54:17;;;;;;;24.42;13.50;;;1.40;50.20;;;;;;5030225;28;20191;-63
2022/03/10 06:56:46;;;;;;;19.23;12.43;;;1.90;49.50;;;;;;5031922;28;20666;-63
2022/03/10 06:59:13;;;;;;;16.58;9.35;;;2.50;47.90;;;;;;5027749;28;20211;-63
2022/03/10 07:01:41;;;;;;;17.23;9.60;;;3.10;46.30;;;;;;5025219;28;20615;-66
2022/03/10 07:04:08;;;;;;;16.70;9.45;;;3.80;44.40;;;;;;5029456;28;20191;-63
2022/03/10 07:06:35;;;;;;;16.52;9.48;;;4.40;42.20;;;;;;5028975;28;20615;-64
2022/03/10 07:09:02;;;;;;;18.20;10.70;;;5.30;40.80;;;;;;5029180;28;20195;-63
2022/03/10 07:11:29;;;;;;;16.70;10.57;;;6.40;38.90;;;;;;5030994;28;20221;-64
2022/03/10 07:14:06;;;;;;;23.55;14.27;;;7.60;36.60;;;;;;5088149;27;20982;-64
2022/03/10 07:16:33;;;;;;;28.85;15.57;;;8.90;34.40;;;;;;5088247;28;20193;-65
2022/03/10 07:19:00;;;;;;;37.47;18.88;;;10.10;31.40;;;;;;5087540;28;20648;-64
2022/03/10 07:21:29;;;;;;;41.15;21.77;;;11.30;30.00;;;;;;5087936;28;20189;-64
2022/03/10 07:23:56;;;;;;;38.30;20.10;;;12.70;28.10;;;;;;5087778;28;20193;-62
2022/03/10 07:26:23;;;;;;;32.22;18.70;;;13.90;25.60;;;;;;5086772;28;20192;-62
2022/03/10 07:28:50;;;;;;;35.67;19.42;;;15.40;25.10;;;;;;5087233;28;20665;-63
2022/03/10 07:31:18;;;;;;;33.60;19.65;;;16.70;23.50;;;;;;5087326;28;20673;-63
2022/03/10 07:33:45;;;;;;;33.65;18.40;;;18.10;21.90;;;;;;5087722;28;20220;-63
2022/03/10 07:36:12;;;;;;;28.48;18.48;;;19.40;21.30;;;;;;5087504;28;20255;-63
2022/03/10 07:38:39;;;;;;;28.65;17.65;;;20.50;20.10;;;;;;5083796;28;20185;-63
2022/03/10 07:41:07;;;;;;;27.13;17.10;;;21.60;19.20;;;;;;5087357;28;20530;-62
2022/03/10 07:43:34;;;;;;;26.23;16.93;;;22.70;18.60;;;;;;5087377;28;20497;-63
2022/03/10 07:46:04;;;;;;;24.80;15.97;;;23.90;17.80;;;;;;5087543;28;20540;-63
2022/03/10 07:48:33;;;;;;;20.57;14.37;;;24.70;16.40;;;;;;5087521;28;20443;-63
2022/03/10 07:51:01;;;;;;;17.73;13.87;;;25.50;15.90;;;;;;5087937;28;20480;-63
2022/03/10 07:53:28;;;;;;;19.40;13.60;;;26.30;14.40;;;;;;5087345;28;20790;-63
2022/03/10 07:55:56;;;;;;;17.50;12.33;;;27.00;14.00;;;;;;5086998;28;20477;-64
2022/03/10 07:58:26;;;;;;;15.03;12.90;;;27.70;14.00;;;;;;5086504;28;20477;-63
2022/03/10 08:00:54;;;;;;;26.10;12.90;;;28.30;13.00;;;;;;5085966;28;20439;-64
2022/03/10 08:03:22;;;;;;;17.80;11.60;;;28.80;12.90;;;;;;5086357;28;20443;-65
2022/03/10 08:05:50;;;;;;;15.90;12.73;;;29.50;12.20;;;;;;5082473;28;20439;-64
2022/03/10 08:08:17;;;;;;;18.20;12.63;;;30.20;12.20;;;;;;5086706;28;20444;-63
2022/03/10 08:10:44;;;;;;;18.23;12.33;;;31.00;11.40;;;;;;5086929;28;20439;-63
2022/03/10 08:13:12;;;;;;;14.37;10.80;;;31.90;11.10;;;;;;5085715;28;20479;-65
2022/03/10 08:15:40;;;;;;;16.13;11.97;;;32.60;10.60;;;;;;5086267;28;20929;-64
2022/03/10 08:18:07;;;;;;;12.17;10.60;;;33.00;9.80;;;;;;5086932;28;20438;-64
2022/03/10 08:20:34;;;;;;;11.67;10.17;;;33.50;9.50;;;;;;5086255;28;20445;-64
2022/03/10 08:23:03;;;;;;;11.90;10.50;;;34.00;8.90;;;;;;5086042;28;20787;-65
2022/03/10 08:25:30;;;;;;;12.40;10.80;;;34.40;9.10;;;;;;5072929;28;20436;-64
2022/03/10 08:27:59;;;;;;;10.60;9.50;;;34.90;8.90;;;;;;5072888;28;20517;-64
2022/03/10 08:30:26;;;;;;;13.40;10.73;;;35.50;8.50;;;;;;5072763;28;20849;-64
2022/03/10 08:32:53;;;;;;;12.50;11.23;;;36.20;7.90;;;;;;5069161;28;20480;-64
2022/03/10 08:35:22;;;;;;;13.13;11.73;;;36.60;7.40;;;;;;5073100;28;20433;-64
2022/03/10 08:37:49;;;;;;;15.33;10.40;;;37.10;7.50;;;;;;5073226;28;20492;-64
2022/03/10 08:40:19;;;;;;;11.57;9.43;;;37.60;7.10;;;;;;5072186;28;20453;-64
2022/03/10 08:42:47;;;;;;;13.00;11.43;;;38.10;6.80;;;;;;5072792;28;20440;-64
2022/03/10 08:45:15;;;;;;;12.20;10.77;;;38.50;6.70;;;;;;5072473;28;20436;-64
2022/03/10 08:47:43;;;;;;;13.60;12.20;;;38.90;6.70;;;;;;5072734;28;20808;-67
2022/03/10 08:50:11;;;;;;;10.70;9.70;;;39.50;6.20;;;;;;5069697;28;20447;-65
2022/03/10 08:52:39;;;;;;;13.20;9.33;;;40.00;5.90;;;;;;5071734;28;20496;-64
2022/03/10 08:55:08;;;;;;;10.63;9.60;;;40.50;5.70;;;;;;5072848;28;20436;-64
2022/03/10 08:57:37;;;;;;;10.00;9.00;;;41.00;5.60;;;;;;5072136;28;20866;-65
2022/03/10 09:00:06;;;;;;;17.50;9.60;;;41.30;5.00;;;;;;5072785;28;20498;-64
2022/03/10 09:02:33;;;;;;;13.03;11.37;;;41.70;5.00;;;;;;5071463;28;20476;-64
2022/03/10 09:05:00;;;;;;;10.77;9.50;;;42.20;4.80;;;;;;5072172;28;20436;-65
2022/03/10 09:07:27;;;;;;;10.50;9.47;;;42.40;4.40;;;;;;5067900;28;20436;-65
2022/03/10 09:09:55;;;;;;;10.10;9.10;;;42.80;4.50;;;;;;5072614;28;21052;-65
2022/03/10 09:12:22;;;;;;;11.07;9.97;;;43.20;4.40;;;;;;5068485;28;20555;-65
2022/03/10 09:14:50;;;;;;;11.20;9.60;;;43.70;4.10;;;;;;5072011;28;20937;-66
2022/03/10 09:17:18;;;;;;;21.90;16.37;;;44.20;4.10;;;;;;5071827;28;20448;-65
2022/03/10 09:19:45;;;;;;;11.77;10.57;;;44.60;4.00;;;;;;5071056;28;20448;-65
2022/03/10 09:22:12;;;;;;;9.90;8.97;;;44.90;3.70;;;;;;5071782;28;20930;-65
2022/03/10 09:24:39;;;;;;;11.00;9.90;;;45.30;3.50;;;;;;5071641;28;20480;-65
2022/03/10 09:27:07;;;;;;;10.43;9.30;;;45.50;3.30;;;;;;5072127;28;20478;-64
2022/03/10 09:29:34;;;;;;;16.87;13.00;;;45.80;3.40;;;;;;5072099;28;20493;-66
2022/03/10 09:32:02;;;;;;;9.33;8.33;;;46.20;3.40;;;;;;5071844;28;20436;-65
2022/03/10 09:34:30;;;;;;;13.27;11.07;;;46.60;2.90;;;;;;5067727;28;20447;-65
2022/03/10 09:36:57;;;;;;;12.83;11.43;;;46.70;3.00;;;;;;5070666;28;20539;-65
2022/03/10 09:39:24;;;;;;;9.00;8.10;;;47.00;2.80;;;;;;5071578;28;20436;-65
2022/03/10 09:41:51;;;;;;;9.00;8.10;;;47.00;2.80;;;;;;5071461;28;20923;-66
2022/03/10 09:44:20;;;;;;;11.03;9.17;;;47.30;2.50;;;;;;5067779;28;20480;-64
2022/03/10 09:46:50;;;;;;;10.07;9.07;;;47.50;2.70;;;;;;5071989;28;20455;-66
2022/03/10 09:49:21;;;;;;;9.40;8.50;;;47.80;2.20;;;;;;5071284;28;20451;-67
2022/03/10 09:51:49;;;;;;;10.83;9.73;;;47.80;2.10;;;;;;5068678;28;21246;-65
2022/03/10 09:54:17;;;;;;;10.60;9.50;;;47.90;2.50;;;;;;5071291;28;20525;-68
2022/03/10 09:56:44;;;;;;;10.07;9.07;;;48.10;2.60;;;;;;5071570;28;20467;-65
2022/03/10 09:59:12;;;;;;;10.47;9.47;;;48.40;2.00;;;;;;5071122;28;20439;-64
2022/03/10 10:01:39;;;;;;;11.43;9.40;;;48.80;2.00;;;;;;5071234;28;20458;-64
2022/03/10 10:04:07;;;;;;;10.47;9.30;;;49.00;2.50;;;;;;5070668;28;20479;-65
2022/03/10 10:07:02;;;;;;;10.73;9.63;;;49.50;1.90;;;;;;5071218;28;20481;-65
2022/03/10 10:09:46;;;;;;;9.70;8.70;;;49.80;2.10;;;;;;5070557;28;20456;-66
2022/03/10 10:12:15;;;;;;;9.20;8.40;;;50.00;1.40;;;;;;5069411;28;20486;-64
2022/03/10 10:14:48;;;;;;;8.80;8.00;;;50.00;1.50;;;;;;5070421;28;20438;-65
2022/03/10 10:17:16;;;;;;;9.00;8.10;;;50.00;1.60;;;;;;5070457;28;20439;-65
2022/03/10 10:19:44;;;;;;;7.97;7.27;;;50.30;1.60;;;;;;5070796;28;20797;-62
2022/03/10 10:22:16;;;;;;;10.40;9.50;;;50.50;1.80;;;;;;5069778;28;20471;-64
2022/03/10 10:24:50;;;;;;;7.90;7.27;;;50.80;1.80;;;;;;5069979;28;20491;-66
2022/03/10 10:27:18;;;;;;;11.73;10.60;;;51.10;1.50;;;;;;5070188;28;20783;-62
2022/03/10 10:29:47;;;;;;;9.50;8.70;;;51.30;1.40;;;;;;5069606;28;20436;-62
2022/03/10 10:32:23;;;;;;;10.50;9.53;;;51.60;1.40;;;;;;5070625;28;20472;-62
2022/03/10 10:35:02;;;;;;;16.07;14.47;;;51.90;1.50;;;;;;5070311;28;20969;-63
2022/03/10 10:37:31;;;;;;;8.73;7.90;;;52.30;1.50;;;;;;5070526;28;20436;-62
2022/03/10 10:39:58;;;;;;;8.07;7.37;;;52.50;1.10;;;;;;5069930;28;20772;-63
2022/03/10 10:42:38;;;;;;;5.90;5.40;;;52.10;1.30;;;;;;5070169;28;20428;-62
2022/03/10 10:45:29;;;;;;;4.87;4.47;;;51.90;1.00;;;;;;5070306;28;20515;-62
2022/03/10 10:48:02;;;;;;;5.17;4.67;;;51.50;1.00;;;;;;5068807;28;20497;-62
2022/03/10 10:50:31;;;;;;;5.00;4.60;;;51.10;1.00;;;;;;5066280;28;20439;-62
2022/03/10 10:52:59;;;;;;;5.93;4.57;;;50.80;1.00;;;;;;5069594;28;20486;-62
2022/03/10 10:55:33;;;;;;;5.30;4.60;;;50.50;1.20;;;;;;5070484;28;20447;-61
2022/03/10 10:58:06;;;;;;;5.00;4.50;;;50.90;1.00;;;;;;5066099;28;20440;-62
2022/03/10 11:00:42;;;;;;;5.93;4.57;;;51.10;1.00;;;;;;5070757;28;20447;-62
2022/03/10 11:03:20;;;;;;;4.07;3.53;;;50.90;1.00;;;;;;5069741;28;20510;-61
2022/03/10 11:05:48;;;;;;;6.03;4.70;;;50.80;1.00;;;;;;5070129;28;20444;-62
2022/03/10 11:08:18;;;;;;;5.00;4.60;;;50.80;1.00;;;;;;5069989;28;20595;-63
2022/03/10 11:10:45;;;;;;;4.63;3.90;;;50.90;1.00;;;;;;5070220;28;20443;-62
2022/03/10 11:13:11;;;;;;;5.50;3.93;;;51.10;1.00;;;;;;5069677;28;20467;-67
2022/03/10 11:15:40;;;;;;;3.50;3.20;;;50.30;1.00;;;;;;5069437;28;20436;-62
2022/03/10 11:18:10;;;;;;;3.37;3.07;;;50.20;1.00;;;;;;5069775;28;20432;-62
2022/03/10 11:20:37;;;;;;;5.70;3.50;;;50.20;1.00;;;;;;5070490;28;20449;-61
2022/03/10 11:23:12;;;;;;;3.40;3.10;;;50.10;1.00;;;;;;5069954;28;20432;-61
2022/03/10 11:25:46;;;;;;;3.70;3.30;;;50.10;1.00;;;;;;5066429;28;20439;-61
2022/03/10 11:28:18;;;;;;;4.20;3.80;;;49.90;1.00;;;;;;5069827;28;20447;-62
2022/03/10 11:30:50;;;;;;;4.20;3.53;;;50.00;1.00;;;;;;5069334;28;20439;-61
2022/03/10 11:33:18;;;;;;;4.00;2.87;;;49.40;1.00;;;;;;5066983;28;20559;-61
2022/03/10 11:35:47;;;;;;;5.40;3.60;;;49.40;1.00;;;;;;5070158;28;20485;-62
2022/03/10 11:38:15;;;;;;;4.90;3.20;;;49.80;1.00;;;;;;5070049;28;20439;-62
2022/03/10 11:40:47;;;;;;;4.53;3.70;;;49.90;1.00;;;;;;5069530;28;20945;-61
2022/03/10 11:43:40;;;;;;;4.50;3.80;;;50.30;1.00;;;;;;5070061;28;20432;-65
2022/03/10 11:49:09;;;;;;;7.33;3.40;;;50.20;1.00;;;;;;5070190;28;20519;-66
2022/03/10 11:54:33;;;;;;;4.10;3.03;;;49.80;1.00;;;;;;5068986;28;20431;-64
2022/03/10 11:57:06;;;;;;;4.10;3.47;;;49.50;1.00;;;;;;5069627;28;20440;-64
2022/03/10 11:59:50;;;;;;;3.73;3.40;;;49.80;1.00;;;;;;5071857;28;20520;-65
2022/03/10 12:02:47;;;;;;;5.13;3.63;;;50.00;1.00;;;;;;5073868;28;21083;-64
2022/03/10 12:05:15;;;;;;;3.83;3.40;;;49.60;1.00;;;;;;5074159;28;20479;-65
2022/03/10 12:07:43;;;;;;;4.23;3.20;;;49.30;1.00;;;;;;5073401;28;20479;-64
2022/03/10 12:10:13;;;;;;;5.20;3.87;;;49.40;1.00;;;;;;5074090;28;21338;-64
2022/03/10 12:12:43;;;;;;;4.30;3.90;;;49.50;1.00;;;;;;5073705;28;20486;-64
2022/03/10 12:15:41;;;;;;;4.13;3.53;;;49.30;1.00;;;;;;5073169;28;20440;-64
2022/03/10 12:18:18;;;;;;;6.93;3.23;;;49.10;1.00;;;;;;5005939;28;20453;-66
2022/03/10 12:20:46;;;;;;;4.20;3.53;;;49.50;1.00;;;;;;5061311;28;20436;-64
2022/03/10 12:23:15;;;;;;;4.27;3.60;;;48.80;1.00;;;;;;5072507;28;20515;-64
2022/03/10 12:25:44;;;;;;;5.20;3.40;;;48.10;1.00;;;;;;5073427;28;20446;-64
2022/03/10 12:28:22;;;;;;;3.90;3.23;;;48.20;1.00;;;;;;5072985;28;21019;-64
2022/03/10 12:30:50;;;;;;;3.67;3.27;;;47.80;1.00;;;;;;5073544;28;21020;-64
2022/03/10 12:33:21;;;;;;;2.77;2.47;;;47.90;1.00;;;;;;5057734;28;20458;-68
2022/03/10 12:35:55;;;;;;;4.30;3.70;;;47.40;1.00;;;;;;5071838;28;20442;-63
2022/03/10 12:38:38;;;;;;;4.83;4.07;;;47.30;1.00;;;;;;5070060;28;20541;-61
2022/03/10 12:41:06;;;;;;;4.67;3.67;;;46.80;1.00;;;;;;5071984;28;20432;-62
2022/03/10 12:43:34;;;;;;;5.50;4.00;;;46.10;1.00;;;;;;5072536;28;20446;-62
2022/03/10 12:46:02;;;;;;;4.63;3.77;;;44.80;1.00;;;;;;5072889;28;20479;-64
2022/03/10 12:48:38;;;;;;;3.80;3.23;;;44.30;1.00;;;;;;5072712;28;20468;-64
2022/03/10 12:51:05;;;;;;;4.03;3.50;;;44.00;1.00;;;;;;5072549;28;20972;-63
2022/03/10 12:53:33;;;;;;;4.80;4.30;;;43.90;1.60;;;;;;5072876;28;20452;-63
2022/03/10 12:56:00;;;;;;;4.60;3.70;;;43.60;1.10;;;;;;5072588;28;20447;-63
2022/03/10 12:58:31;;;;;;;7.50;4.20;;;43.10;1.20;;;;;;5072378;28;20436;-64
2022/03/10 13:01:11;;;;;;;4.20;3.70;;;42.80;1.60;;;;;;5072059;28;20506;-64